sensor_id;sensor_type;location;lat;lon;timestamp;P1;durP1;ratioP1;P2;durP2;ratioP2
13343;SDS011;6741;48.964;9.406;2022-11-15T00:02:24;6.53;;;4.07;;
13343;SDS011;6741;48.964;9.406;2022-11-15T00:04:52;5.47;;;4.70;;
13343;SDS011;6741;48.964;9.406;2022-11-15T00:07:19;5.60;;;4.40;;
13343;SDS011;6741;48.964;9.406;2022-11-15T00:09:46;6.60;;;3.97;;
13343;SDS011;6741;48.964;9.406;2022-11-15T00:12:13;6.90;;;3.93;;
13343;SDS011;6741;48.964;9.406;2022-11-15T00:14:40;6.00;;;4.43;;
13343;SDS011;6741;48.964;9.406;2022-11-15T00:17:08;5.13;;;4.30;;
13343;SDS011;6741;48.964;9.406;2022-11-15T00:19:35;5.83;;;3.67;;
13343;SDS011;6741;48.964;9.406;2022-11-15T00:22:02;4.37;;;3.90;;
13343;SDS011;6741;48.964;9.406;2022-11-15T00:24:29;5.37;;;3.93;;
13343;SDS011;6741;48.964;9.406;2022-11-15T00:26:56;7.07;;;3.90;;
13343;SDS011;6741;48.964;9.406;2022-11-15T00:29:23;5.07;;;4.03;;
13343;SDS011;6741;48.964;9.406;2022-11-15T00:31:50;4.63;;;4.13;;
13343;SDS011;6741;48.964;9.406;2022-11-15T00:34:19;5.90;;;3.77;;
13343;SDS011;6741;48.964;9.406;2022-11-15T00:36:46;4.43;;;3.80;;
13343;SDS011;6741;48.964;9.406;2022-11-15T00:39:13;4.47;;;4.07;;
13343;SDS011;6741;48.964;9.406;2022-11-15T00:41:40;5.23;;;3.90;;
13343;SDS011;6741;48.964;9.406;2022-11-15T00:44:07;5.13;;;4.40;;
13343;SDS011;6741;48.964;9.406;2022-11-15T00:46:34;4.27;;;3.67;;
13343;SDS011;6741;48.964;9.406;2022-11-15T00:49:01;4.73;;;4.03;;
13343;SDS011;6741;48.964;9.406;2022-11-15T00:51:29;4.53;;;3.93;;
13343;SDS011;6741;48.964;9.406;2022-11-15T00:53:56;5.47;;;3.80;;
13343;SDS011;6741;48.964;9.406;2022-11-15T00:56:23;5.67;;;4.03;;
13343;SDS011;6741;48.964;9.406;2022-11-15T00:58:50;4.93;;;4.27;;
13343;SDS011;6741;48.964;9.406;2022-11-15T01:01:17;4.50;;;4.10;;
13343;SDS011;6741;48.964;9.406;2022-11-15T01:03:43;4.57;;;4.17;;
13343;SDS011;6741;48.964;9.406;2022-11-15T01:06:10;5.03;;;3.93;;
13343;SDS011;6741;48.964;9.406;2022-11-15T01:08:39;7.53;;;4.40;;
13343;SDS011;6741;48.964;9.406;2022-11-15T01:11:07;4.07;;;3.67;;
13343;SDS011;6741;48.964;9.406;2022-11-15T01:13:36;5.50;;;3.97;;
13343;SDS011;6741;48.964;9.406;2022-11-15T01:16:08;3.83;;;3.43;;
13343;SDS011;6741;48.964;9.406;2022-11-15T01:18:36;4.10;;;3.73;;
13343;SDS011;6741;48.964;9.406;2022-11-15T01:21:07;4.27;;;3.87;;
13343;SDS011;6741;48.964;9.406;2022-11-15T01:23:35;5.60;;;4.00;;
13343;SDS011;6741;48.964;9.406;2022-11-15T01:26:04;4.43;;;3.70;;
13343;SDS011;6741;48.964;9.406;2022-11-15T01:28:34;5.27;;;4.03;;
13343;SDS011;6741;48.964;9.406;2022-11-15T01:31:02;5.23;;;4.07;;
13343;SDS011;6741;48.964;9.406;2022-11-15T01:33:33;5.57;;;4.17;;
13343;SDS011;6741;48.964;9.406;2022-11-15T01:36:02;6.97;;;3.90;;
13343;SDS011;6741;48.964;9.406;2022-11-15T01:38:30;5.97;;;4.60;;
13343;SDS011;6741;48.964;9.406;2022-11-15T01:40:57;9.03;;;4.00;;
13343;SDS011;6741;48.964;9.406;2022-11-15T01:43:27;5.43;;;4.30;;
13343;SDS011;6741;48.964;9.406;2022-11-15T01:45:55;4.07;;;3.67;;
13343;SDS011;6741;48.964;9.406;2022-11-15T01:48:28;4.50;;;3.90;;
13343;SDS011;6741;48.964;9.406;2022-11-15T01:50:59;6.13;;;4.10;;
13343;SDS011;6741;48.964;9.406;2022-11-15T01:53:28;5.93;;;3.50;;
13343;SDS011;6741;48.964;9.406;2022-11-15T01:55:58;4.23;;;3.83;;
13343;SDS011;6741;48.964;9.406;2022-11-15T01:58:29;4.97;;;3.93;;
13343;SDS011;6741;48.964;9.406;2022-11-15T02:00:57;4.67;;;4.17;;
13343;SDS011;6741;48.964;9.406;2022-11-15T02:03:25;7.73;;;4.73;;
13343;SDS011;6741;48.964;9.406;2022-11-15T02:05:56;5.87;;;4.00;;
13343;SDS011;6741;48.964;9.406;2022-11-15T02:08:24;6.20;;;4.23;;
13343;SDS011;6741;48.964;9.406;2022-11-15T02:10:53;5.20;;;4.13;;
13343;SDS011;6741;48.964;9.406;2022-11-15T02:13:19;4.53;;;4.13;;
13343;SDS011;6741;48.964;9.406;2022-11-15T02:15:50;5.60;;;4.87;;
13343;SDS011;6741;48.964;9.406;2022-11-15T02:18:24;5.97;;;4.27;;
13343;SDS011;6741;48.964;9.406;2022-11-15T02:21:05;5.77;;;4.30;;
13343;SDS011;6741;48.964;9.406;2022-11-15T02:29:40;6.70;;;4.87;;
13343;SDS011;6741;48.964;9.406;2022-11-15T02:32:26;6.27;;;5.27;;
13343;SDS011;6741;48.964;9.406;2022-11-15T02:35:01;8.87;;;5.50;;
13343;SDS011;6741;48.964;9.406;2022-11-15T02:37:34;8.03;;;5.70;;
13343;SDS011;6741;48.964;9.406;2022-11-15T02:40:10;7.13;;;5.50;;
13343;SDS011;6741;48.964;9.406;2022-11-15T02:42:45;7.03;;;5.40;;
13343;SDS011;6741;48.964;9.406;2022-11-15T02:45:35;8.57;;;5.87;;
13343;SDS011;6741;48.964;9.406;2022-11-15T02:48:07;7.97;;;6.30;;
13343;SDS011;6741;48.964;9.406;2022-11-15T02:50:37;6.77;;;4.90;;
13343;SDS011;6741;48.964;9.406;2022-11-15T02:53:04;6.43;;;5.03;;
13343;SDS011;6741;48.964;9.406;2022-11-15T02:55:32;6.53;;;5.10;;
13343;SDS011;6741;48.964;9.406;2022-11-15T02:58:06;4.93;;;4.37;;
13343;SDS011;6741;48.964;9.406;2022-11-15T03:00:53;6.00;;;3.93;;
13343;SDS011;6741;48.964;9.406;2022-11-15T03:03:37;6.63;;;4.37;;
13343;SDS011;6741;48.964;9.406;2022-11-15T03:06:14;4.80;;;4.00;;
13343;SDS011;6741;48.964;9.406;2022-11-15T03:08:53;8.50;;;4.00;;
13343;SDS011;6741;48.964;9.406;2022-11-15T03:11:26;5.23;;;3.93;;
13343;SDS011;6741;48.964;9.406;2022-11-15T03:13:56;5.37;;;3.87;;
13343;SDS011;6741;48.964;9.406;2022-11-15T03:16:26;4.97;;;4.40;;
13343;SDS011;6741;48.964;9.406;2022-11-15T03:18:59;6.20;;;4.20;;
13343;SDS011;6741;48.964;9.406;2022-11-15T03:21:34;4.90;;;4.20;;
13343;SDS011;6741;48.964;9.406;2022-11-15T03:24:06;4.63;;;4.17;;
13343;SDS011;6741;48.964;9.406;2022-11-15T03:26:35;6.57;;;3.93;;
13343;SDS011;6741;48.964;9.406;2022-11-15T03:29:06;4.60;;;4.13;;
13343;SDS011;6741;48.964;9.406;2022-11-15T03:31:38;5.80;;;3.93;;
13343;SDS011;6741;48.964;9.406;2022-11-15T03:34:15;5.47;;;3.80;;
13343;SDS011;6741;48.964;9.406;2022-11-15T03:36:48;6.27;;;4.10;;
13343;SDS011;6741;48.964;9.406;2022-11-15T03:39:17;5.77;;;4.13;;
13343;SDS011;6741;48.964;9.406;2022-11-15T03:41:47;4.03;;;3.60;;
13343;SDS011;6741;48.964;9.406;2022-11-15T03:44:20;5.63;;;3.87;;
13343;SDS011;6741;48.964;9.406;2022-11-15T03:46:54;4.73;;;3.70;;
13343;SDS011;6741;48.964;9.406;2022-11-15T03:49:29;5.87;;;3.50;;
13343;SDS011;6741;48.964;9.406;2022-11-15T03:51:59;4.17;;;3.03;;
13343;SDS011;6741;48.964;9.406;2022-11-15T03:54:27;3.83;;;3.23;;
13343;SDS011;6741;48.964;9.406;2022-11-15T03:56:54;4.07;;;3.67;;
13343;SDS011;6741;48.964;9.406;2022-11-15T03:59:21;5.73;;;4.17;;
13343;SDS011;6741;48.964;9.406;2022-11-15T04:01:49;5.67;;;3.70;;
13343;SDS011;6741;48.964;9.406;2022-11-15T04:04:15;8.70;;;4.00;;
13343;SDS011;6741;48.964;9.406;2022-11-15T04:06:44;4.90;;;3.57;;
13343;SDS011;6741;48.964;9.406;2022-11-15T04:09:11;7.20;;;3.70;;
13343;SDS011;6741;48.964;9.406;2022-11-15T04:11:38;13.70;;;9.33;;
13343;SDS011;6741;48.964;9.406;2022-11-15T04:14:05;10.37;;;7.37;;
13343;SDS011;6741;48.964;9.406;2022-11-15T04:16:31;16.53;;;10.17;;
13343;SDS011;6741;48.964;9.406;2022-11-15T04:18:58;14.50;;;11.23;;
13343;SDS011;6741;48.964;9.406;2022-11-15T04:21:44;10.93;;;8.03;;
13343;SDS011;6741;48.964;9.406;2022-11-15T04:24:29;10.13;;;6.07;;
13343;SDS011;6741;48.964;9.406;2022-11-15T04:26:56;6.87;;;5.40;;
13343;SDS011;6741;48.964;9.406;2022-11-15T04:29:23;6.77;;;5.07;;
13343;SDS011;6741;48.964;9.406;2022-11-15T04:32:02;5.73;;;4.80;;
13343;SDS011;6741;48.964;9.406;2022-11-15T04:34:29;6.80;;;5.50;;
13343;SDS011;6741;48.964;9.406;2022-11-15T04:36:57;6.37;;;5.37;;
13343;SDS011;6741;48.964;9.406;2022-11-15T04:39:41;6.97;;;5.90;;
13343;SDS011;6741;48.964;9.406;2022-11-15T04:42:10;7.40;;;6.30;;
13343;SDS011;6741;48.964;9.406;2022-11-15T04:44:37;7.43;;;6.63;;
13343;SDS011;6741;48.964;9.406;2022-11-15T04:47:04;7.77;;;6.47;;
13343;SDS011;6741;48.964;9.406;2022-11-15T04:49:31;7.57;;;6.57;;
13343;SDS011;6741;48.964;9.406;2022-11-15T04:52:00;10.53;;;6.77;;
13343;SDS011;6741;48.964;9.406;2022-11-15T04:54:27;10.20;;;6.93;;
13343;SDS011;6741;48.964;9.406;2022-11-15T04:56:54;6.87;;;6.17;;
13343;SDS011;6741;48.964;9.406;2022-11-15T04:59:21;9.87;;;5.83;;
13343;SDS011;6741;48.964;9.406;2022-11-15T05:01:48;8.57;;;6.47;;
13343;SDS011;6741;48.964;9.406;2022-11-15T05:04:15;8.33;;;6.50;;
13343;SDS011;6741;48.964;9.406;2022-11-15T05:06:47;7.10;;;5.80;;
13343;SDS011;6741;48.964;9.406;2022-11-15T05:09:16;7.10;;;6.40;;
13343;SDS011;6741;48.964;9.406;2022-11-15T05:11:44;6.60;;;5.67;;
13343;SDS011;6741;48.964;9.406;2022-11-15T05:14:11;6.40;;;5.07;;
13343;SDS011;6741;48.964;9.406;2022-11-15T05:16:39;6.43;;;5.10;;
13343;SDS011;6741;48.964;9.406;2022-11-15T05:19:06;8.53;;;5.33;;
13343;SDS011;6741;48.964;9.406;2022-11-15T05:21:33;5.87;;;4.97;;
13343;SDS011;6741;48.964;9.406;2022-11-15T05:24:01;4.60;;;4.20;;
13343;SDS011;6741;48.964;9.406;2022-11-15T05:26:30;4.47;;;3.70;;
13343;SDS011;6741;48.964;9.406;2022-11-15T05:28:57;4.70;;;4.20;;
13343;SDS011;6741;48.964;9.406;2022-11-15T05:31:25;5.23;;;4.17;;
13343;SDS011;6741;48.964;9.406;2022-11-15T05:33:53;4.93;;;4.43;;
13343;SDS011;6741;48.964;9.406;2022-11-15T05:36:24;6.30;;;4.70;;
13343;SDS011;6741;48.964;9.406;2022-11-15T05:38:55;4.67;;;4.23;;
13343;SDS011;6741;48.964;9.406;2022-11-15T05:41:25;4.97;;;4.47;;
13343;SDS011;6741;48.964;9.406;2022-11-15T05:43:59;4.10;;;3.70;;
13343;SDS011;6741;48.964;9.406;2022-11-15T05:46:27;8.07;;;4.43;;
13343;SDS011;6741;48.964;9.406;2022-11-15T05:48:56;7.43;;;4.23;;
13343;SDS011;6741;48.964;9.406;2022-11-15T05:51:24;5.40;;;4.73;;
13343;SDS011;6741;48.964;9.406;2022-11-15T05:53:52;6.10;;;4.13;;
13343;SDS011;6741;48.964;9.406;2022-11-15T05:56:22;7.23;;;5.23;;
13343;SDS011;6741;48.964;9.406;2022-11-15T05:58:50;11.57;;;8.87;;
13343;SDS011;6741;48.964;9.406;2022-11-15T06:01:20;14.33;;;9.83;;
13343;SDS011;6741;48.964;9.406;2022-11-15T06:03:47;12.17;;;8.73;;
13343;SDS011;6741;48.964;9.406;2022-11-15T06:06:14;18.03;;;9.97;;
13343;SDS011;6741;48.964;9.406;2022-11-15T06:08:41;23.00;;;12.57;;
13343;SDS011;6741;48.964;9.406;2022-11-15T06:11:08;32.53;;;17.40;;
13343;SDS011;6741;48.964;9.406;2022-11-15T06:13:35;30.80;;;16.83;;
13343;SDS011;6741;48.964;9.406;2022-11-15T06:16:02;25.57;;;12.20;;
13343;SDS011;6741;48.964;9.406;2022-11-15T06:18:33;16.17;;;9.03;;
13343;SDS011;6741;48.964;9.406;2022-11-15T06:21:00;15.03;;;9.23;;
13343;SDS011;6741;48.964;9.406;2022-11-15T06:23:27;11.53;;;7.90;;
13343;SDS011;6741;48.964;9.406;2022-11-15T06:25:57;9.60;;;6.67;;
13343;SDS011;6741;48.964;9.406;2022-11-15T06:28:25;12.17;;;8.37;;
13343;SDS011;6741;48.964;9.406;2022-11-15T06:30:54;10.03;;;7.10;;
13343;SDS011;6741;48.964;9.406;2022-11-15T06:33:21;11.23;;;7.87;;
13343;SDS011;6741;48.964;9.406;2022-11-15T06:35:49;7.30;;;6.60;;
13343;SDS011;6741;48.964;9.406;2022-11-15T06:38:16;7.83;;;6.40;;
13343;SDS011;6741;48.964;9.406;2022-11-15T06:40:43;9.30;;;6.40;;
13343;SDS011;6741;48.964;9.406;2022-11-15T06:43:10;7.97;;;5.70;;
13343;SDS011;6741;48.964;9.406;2022-11-15T06:45:37;7.23;;;5.63;;
13343;SDS011;6741;48.964;9.406;2022-11-15T06:48:04;8.50;;;6.00;;
13343;SDS011;6741;48.964;9.406;2022-11-15T06:50:32;10.00;;;5.90;;
13343;SDS011;6741;48.964;9.406;2022-11-15T06:53:03;6.47;;;5.73;;
13343;SDS011;6741;48.964;9.406;2022-11-15T06:55:30;7.53;;;5.90;;
13343;SDS011;6741;48.964;9.406;2022-11-15T06:57:57;6.97;;;5.77;;
13343;SDS011;6741;48.964;9.406;2022-11-15T07:00:24;8.67;;;5.07;;
13343;SDS011;6741;48.964;9.406;2022-11-15T07:02:51;5.87;;;5.23;;
13343;SDS011;6741;48.964;9.406;2022-11-15T07:05:18;5.97;;;5.37;;
13343;SDS011;6741;48.964;9.406;2022-11-15T07:07:50;6.60;;;5.90;;
13343;SDS011;6741;48.964;9.406;2022-11-15T07:10:19;7.53;;;6.17;;
13343;SDS011;6741;48.964;9.406;2022-11-15T07:12:49;9.20;;;6.87;;
13343;SDS011;6741;48.964;9.406;2022-11-15T07:15:16;9.87;;;6.67;;
13343;SDS011;6741;48.964;9.406;2022-11-15T07:17:44;11.03;;;7.20;;
13343;SDS011;6741;48.964;9.406;2022-11-15T07:20:11;11.50;;;6.60;;
13343;SDS011;6741;48.964;9.406;2022-11-15T07:22:40;9.47;;;7.63;;
13343;SDS011;6741;48.964;9.406;2022-11-15T07:25:07;8.20;;;6.97;;
13343;SDS011;6741;48.964;9.406;2022-11-15T07:27:38;8.07;;;5.47;;
13343;SDS011;6741;48.964;9.406;2022-11-15T07:30:05;6.30;;;5.03;;
13343;SDS011;6741;48.964;9.406;2022-11-15T07:32:33;8.33;;;5.70;;
13343;SDS011;6741;48.964;9.406;2022-11-15T07:35:00;10.27;;;6.40;;
13343;SDS011;6741;48.964;9.406;2022-11-15T07:37:27;8.00;;;7.20;;
13343;SDS011;6741;48.964;9.406;2022-11-15T07:39:54;6.87;;;6.10;;
13343;SDS011;6741;48.964;9.406;2022-11-15T07:42:21;5.70;;;5.10;;
13343;SDS011;6741;48.964;9.406;2022-11-15T07:45:07;12.40;;;6.63;;
13343;SDS011;6741;48.964;9.406;2022-11-15T07:47:34;7.77;;;5.90;;
13343;SDS011;6741;48.964;9.406;2022-11-15T07:50:02;8.57;;;5.97;;
13343;SDS011;6741;48.964;9.406;2022-11-15T07:52:29;5.47;;;4.87;;
13343;SDS011;6741;48.964;9.406;2022-11-15T07:54:56;4.60;;;4.20;;
13343;SDS011;6741;48.964;9.406;2022-11-15T07:57:23;6.20;;;4.00;;
13343;SDS011;6741;48.964;9.406;2022-11-15T07:59:49;5.50;;;4.03;;
13343;SDS011;6741;48.964;9.406;2022-11-15T08:02:18;4.77;;;3.83;;
13343;SDS011;6741;48.964;9.406;2022-11-15T08:04:45;5.17;;;4.07;;
13343;SDS011;6741;48.964;9.406;2022-11-15T08:07:12;6.37;;;4.43;;
13343;SDS011;6741;48.964;9.406;2022-11-15T08:09:39;4.23;;;3.53;;
13343;SDS011;6741;48.964;9.406;2022-11-15T08:12:06;7.13;;;4.20;;
13343;SDS011;6741;48.964;9.406;2022-11-15T08:14:34;5.30;;;3.70;;
13343;SDS011;6741;48.964;9.406;2022-11-15T08:17:01;4.63;;;4.07;;
13343;SDS011;6741;48.964;9.406;2022-11-15T08:19:29;5.23;;;4.57;;
13343;SDS011;6741;48.964;9.406;2022-11-15T08:21:56;5.07;;;4.17;;
13343;SDS011;6741;48.964;9.406;2022-11-15T08:24:23;5.17;;;3.77;;
13343;SDS011;6741;48.964;9.406;2022-11-15T08:26:50;3.73;;;3.33;;
13343;SDS011;6741;48.964;9.406;2022-11-15T08:29:17;4.00;;;3.33;;
13343;SDS011;6741;48.964;9.406;2022-11-15T08:31:44;4.63;;;3.30;;
13343;SDS011;6741;48.964;9.406;2022-11-15T08:34:11;6.83;;;4.13;;
13343;SDS011;6741;48.964;9.406;2022-11-15T08:36:39;3.87;;;3.17;;
13343;SDS011;6741;48.964;9.406;2022-11-15T08:39:09;3.50;;;3.20;;
13343;SDS011;6741;48.964;9.406;2022-11-15T08:41:36;3.60;;;3.30;;
13343;SDS011;6741;48.964;9.406;2022-11-15T08:44:04;4.43;;;3.27;;
13343;SDS011;6741;48.964;9.406;2022-11-15T08:46:31;3.90;;;3.60;;
13343;SDS011;6741;48.964;9.406;2022-11-15T08:48:58;3.60;;;3.30;;
13343;SDS011;6741;48.964;9.406;2022-11-15T08:51:25;4.67;;;3.77;;
13343;SDS011;6741;48.964;9.406;2022-11-15T08:53:53;3.80;;;3.40;;
13343;SDS011;6741;48.964;9.406;2022-11-15T08:56:20;3.80;;;3.17;;
13343;SDS011;6741;48.964;9.406;2022-11-15T08:58:47;3.80;;;2.97;;
13343;SDS011;6741;48.964;9.406;2022-11-15T09:01:15;4.33;;;3.43;;
13343;SDS011;6741;48.964;9.406;2022-11-15T09:03:43;4.17;;;3.37;;
13343;SDS011;6741;48.964;9.406;2022-11-15T09:06:10;5.23;;;3.13;;
13343;SDS011;6741;48.964;9.406;2022-11-15T09:08:37;3.43;;;3.07;;
13343;SDS011;6741;48.964;9.406;2022-11-15T09:11:06;3.90;;;3.33;;
13343;SDS011;6741;48.964;9.406;2022-11-15T09:13:35;3.97;;;3.00;;
13343;SDS011;6741;48.964;9.406;2022-11-15T09:16:03;3.37;;;2.80;;
13343;SDS011;6741;48.964;9.406;2022-11-15T09:18:30;3.57;;;2.83;;
13343;SDS011;6741;48.964;9.406;2022-11-15T09:20:58;3.77;;;2.60;;
13343;SDS011;6741;48.964;9.406;2022-11-15T09:23:27;2.83;;;2.63;;
13343;SDS011;6741;48.964;9.406;2022-11-15T09:25:58;2.93;;;2.30;;
13343;SDS011;6741;48.964;9.406;2022-11-15T09:28:28;2.73;;;2.27;;
13343;SDS011;6741;48.964;9.406;2022-11-15T09:30:56;2.70;;;2.23;;
13343;SDS011;6741;48.964;9.406;2022-11-15T09:33:24;5.20;;;2.53;;
13343;SDS011;6741;48.964;9.406;2022-11-15T09:35:52;2.83;;;2.37;;
13343;SDS011;6741;48.964;9.406;2022-11-15T09:38:19;2.60;;;2.37;;
13343;SDS011;6741;48.964;9.406;2022-11-15T09:40:47;3.77;;;2.63;;
13343;SDS011;6741;48.964;9.406;2022-11-15T09:43:25;3.67;;;2.50;;
13343;SDS011;6741;48.964;9.406;2022-11-15T09:46:02;4.33;;;3.13;;
13343;SDS011;6741;48.964;9.406;2022-11-15T09:51:26;4.23;;;2.93;;
13343;SDS011;6741;48.964;9.406;2022-11-15T09:53:57;3.40;;;2.80;;
13343;SDS011;6741;48.964;9.406;2022-11-15T09:56:29;4.87;;;3.00;;
13343;SDS011;6741;48.964;9.406;2022-11-15T09:59:03;4.37;;;3.30;;
13343;SDS011;6741;48.964;9.406;2022-11-15T10:01:50;4.43;;;2.90;;
13343;SDS011;6741;48.964;9.406;2022-11-15T10:04:22;2.87;;;2.57;;
13343;SDS011;6741;48.964;9.406;2022-11-15T10:06:52;2.83;;;2.53;;
13343;SDS011;6741;48.964;9.406;2022-11-15T10:09:25;4.23;;;2.93;;
13343;SDS011;6741;48.964;9.406;2022-11-15T10:11:56;4.07;;;2.77;;
13343;SDS011;6741;48.964;9.406;2022-11-15T10:14:25;3.77;;;2.17;;
13343;SDS011;6741;48.964;9.406;2022-11-15T10:19:23;2.40;;;2.20;;
13343;SDS011;6741;48.964;9.406;2022-11-15T10:21:59;2.42;;;2.20;;
13343;SDS011;6741;48.964;9.406;2022-11-15T10:24:34;2.05;;;1.83;;
13343;SDS011;6741;48.964;9.406;2022-11-15T10:27:06;3.53;;;1.92;;
13343;SDS011;6741;48.964;9.406;2022-11-15T10:29:40;2.55;;;2.35;;
13343;SDS011;6741;48.964;9.406;2022-11-15T10:32:09;3.30;;;1.83;;
13343;SDS011;6741;48.964;9.406;2022-11-15T10:34:37;2.58;;;2.15;;
13343;SDS011;6741;48.964;9.406;2022-11-15T10:37:04;3.15;;;2.40;;
13343;SDS011;6741;48.964;9.406;2022-11-15T10:39:31;2.88;;;1.92;;
13343;SDS011;6741;48.964;9.406;2022-11-15T10:42:02;3.63;;;2.50;;
13343;SDS011;6741;48.964;9.406;2022-11-15T10:44:44;2.20;;;2.00;;
13343;SDS011;6741;48.964;9.406;2022-11-15T10:47:20;6.38;;;2.60;;
13343;SDS011;6741;48.964;9.406;2022-11-15T10:49:54;3.83;;;2.53;;
13343;SDS011;6741;48.964;9.406;2022-11-15T10:52:22;4.07;;;2.50;;
13343;SDS011;6741;48.964;9.406;2022-11-15T10:54:51;4.18;;;2.45;;
13343;SDS011;6741;48.964;9.406;2022-11-15T10:57:21;3.67;;;2.70;;
13343;SDS011;6741;48.964;9.406;2022-11-15T10:59:51;2.70;;;2.50;;
13343;SDS011;6741;48.964;9.406;2022-11-15T11:02:28;4.57;;;3.03;;
13343;SDS011;6741;48.964;9.406;2022-11-15T11:04:57;6.55;;;2.75;;
13343;SDS011;6741;48.964;9.406;2022-11-15T11:07:26;11.75;;;2.88;;
13343;SDS011;6741;48.964;9.406;2022-11-15T11:09:58;6.25;;;3.05;;
13343;SDS011;6741;48.964;9.406;2022-11-15T11:12:27;3.88;;;3.00;;
13343;SDS011;6741;48.964;9.406;2022-11-15T11:14:58;6.78;;;2.55;;
13343;SDS011;6741;48.964;9.406;2022-11-15T11:17:32;3.80;;;2.78;;
13343;SDS011;6741;48.964;9.406;2022-11-15T11:20:18;3.20;;;2.90;;
13343;SDS011;6741;48.964;9.406;2022-11-15T11:22:53;3.88;;;2.63;;
13343;SDS011;6741;48.964;9.406;2022-11-15T11:25:40;4.03;;;3.17;;
13343;SDS011;6741;48.964;9.406;2022-11-15T11:28:16;13.02;;;9.57;;
13343;SDS011;6741;48.964;9.406;2022-11-15T11:30:57;23.40;;;14.10;;
13343;SDS011;6741;48.964;9.406;2022-11-15T11:33:33;7.85;;;6.10;;
13343;SDS011;6741;48.964;9.406;2022-11-15T11:36:06;9.37;;;6.07;;
13343;SDS011;6741;48.964;9.406;2022-11-15T11:41:40;10.27;;;5.93;;
13343;SDS011;6741;48.964;9.406;2022-11-15T11:47:21;5.10;;;3.25;;
13343;SDS011;6741;48.964;9.406;2022-11-15T11:49:51;6.15;;;4.43;;
13343;SDS011;6741;48.964;9.406;2022-11-15T11:52:22;6.20;;;4.63;;
13343;SDS011;6741;48.964;9.406;2022-11-15T11:54:54;6.47;;;4.30;;
13343;SDS011;6741;48.964;9.406;2022-11-15T11:57:35;4.13;;;3.28;;
13343;SDS011;6741;48.964;9.406;2022-11-15T12:00:15;3.15;;;2.70;;
13343;SDS011;6741;48.964;9.406;2022-11-15T12:02:47;5.25;;;2.88;;
13343;SDS011;6741;48.964;9.406;2022-11-15T12:05:23;4.47;;;2.95;;
13343;SDS011;6741;48.964;9.406;2022-11-15T12:07:58;4.32;;;3.00;;
13343;SDS011;6741;48.964;9.406;2022-11-15T12:10:30;3.60;;;3.30;;
13343;SDS011;6741;48.964;9.406;2022-11-15T12:13:00;3.83;;;2.50;;
13343;SDS011;6741;48.964;9.406;2022-11-15T12:15:32;5.55;;;2.88;;
13343;SDS011;6741;48.964;9.406;2022-11-15T12:18:08;2.63;;;2.35;;
13343;SDS011;6741;48.964;9.406;2022-11-15T12:20:40;4.40;;;3.17;;
13343;SDS011;6741;48.964;9.406;2022-11-15T12:23:17;3.40;;;2.80;;
13343;SDS011;6741;48.964;9.406;2022-11-15T12:25:49;3.65;;;3.28;;
13343;SDS011;6741;48.964;9.406;2022-11-15T12:28:19;4.47;;;3.00;;
13343;SDS011;6741;48.964;9.406;2022-11-15T12:30:55;6.40;;;3.30;;
13343;SDS011;6741;48.964;9.406;2022-11-15T12:33:36;6.40;;;3.38;;
13343;SDS011;6741;48.964;9.406;2022-11-15T12:36:04;3.75;;;2.70;;
13343;SDS011;6741;48.964;9.406;2022-11-15T12:38:52;3.17;;;2.90;;
13343;SDS011;6741;48.964;9.406;2022-11-15T12:41:21;3.63;;;3.15;;
13343;SDS011;6741;48.964;9.406;2022-11-15T12:43:50;5.55;;;3.50;;
13343;SDS011;6741;48.964;9.406;2022-11-15T12:46:20;5.50;;;3.28;;
13343;SDS011;6741;48.964;9.406;2022-11-15T12:48:55;5.07;;;3.67;;
13343;SDS011;6741;48.964;9.406;2022-11-15T12:54:51;5.72;;;3.72;;
13343;SDS011;6741;48.964;9.406;2022-11-15T12:57:31;4.72;;;3.63;;
13343;SDS011;6741;48.964;9.406;2022-11-15T13:03:17;3.85;;;3.55;;
13343;SDS011;6741;48.964;9.406;2022-11-15T13:09:01;5.50;;;4.03;;
13343;SDS011;6741;48.964;9.406;2022-11-15T13:11:43;6.18;;;4.13;;
13343;SDS011;6741;48.964;9.406;2022-11-15T13:17:11;7.10;;;3.90;;
13343;SDS011;6741;48.964;9.406;2022-11-15T13:20:07;5.28;;;4.15;;
13343;SDS011;6741;48.964;9.406;2022-11-15T13:22:46;4.60;;;4.20;;
13343;SDS011;6741;48.964;9.406;2022-11-15T13:25:40;8.25;;;4.10;;
13343;SDS011;6741;48.964;9.406;2022-11-15T13:28:20;6.05;;;3.50;;
13343;SDS011;6741;48.964;9.406;2022-11-15T13:30:53;4.85;;;3.88;;
13343;SDS011;6741;48.964;9.406;2022-11-15T13:33:23;5.57;;;3.88;;
13343;SDS011;6741;48.964;9.406;2022-11-15T13:35:52;4.93;;;3.80;;
13343;SDS011;6741;48.964;9.406;2022-11-15T13:38:26;3.53;;;3.08;;
13343;SDS011;6741;48.964;9.406;2022-11-15T13:40:56;4.95;;;3.38;;
13343;SDS011;6741;48.964;9.406;2022-11-15T13:43:28;4.68;;;4.05;;
13343;SDS011;6741;48.964;9.406;2022-11-15T13:46:06;5.05;;;4.45;;
13343;SDS011;6741;48.964;9.406;2022-11-15T13:48:37;6.45;;;4.97;;
13343;SDS011;6741;48.964;9.406;2022-11-15T13:51:05;6.03;;;5.03;;
13343;SDS011;6741;48.964;9.406;2022-11-15T13:53:36;6.63;;;4.22;;
13343;SDS011;6741;48.964;9.406;2022-11-15T13:56:09;6.30;;;4.93;;
13343;SDS011;6741;48.964;9.406;2022-11-15T13:58:37;5.40;;;4.50;;
13343;SDS011;6741;48.964;9.406;2022-11-15T14:01:05;4.20;;;3.78;;
13343;SDS011;6741;48.964;9.406;2022-11-15T14:03:33;3.60;;;2.95;;
13343;SDS011;6741;48.964;9.406;2022-11-15T14:06:05;6.13;;;3.88;;
13343;SDS011;6741;48.964;9.406;2022-11-15T14:08:36;5.75;;;4.43;;
13343;SDS011;6741;48.964;9.406;2022-11-15T14:16:46;4.93;;;3.75;;
13343;SDS011;6741;48.964;9.406;2022-11-15T14:22:10;4.47;;;3.67;;
13343;SDS011;6741;48.964;9.406;2022-11-15T14:24:42;5.38;;;3.95;;
13343;SDS011;6741;48.964;9.406;2022-11-15T14:27:20;7.55;;;4.45;;
13343;SDS011;6741;48.964;9.406;2022-11-15T14:29:50;6.88;;;3.88;;
13343;SDS011;6741;48.964;9.406;2022-11-15T14:32:17;6.22;;;3.40;;
13343;SDS011;6741;48.964;9.406;2022-11-15T14:34:46;3.85;;;3.55;;
13343;SDS011;6741;48.964;9.406;2022-11-15T14:37:23;3.75;;;3.42;;
13343;SDS011;6741;48.964;9.406;2022-11-15T14:39:52;3.50;;;2.83;;
13343;SDS011;6741;48.964;9.406;2022-11-15T14:42:22;3.65;;;2.95;;
13343;SDS011;6741;48.964;9.406;2022-11-15T14:44:50;5.47;;;3.28;;
13343;SDS011;6741;48.964;9.406;2022-11-15T14:47:17;4.63;;;3.05;;
13343;SDS011;6741;48.964;9.406;2022-11-15T14:49:45;4.10;;;3.13;;
13343;SDS011;6741;48.964;9.406;2022-11-15T14:52:25;3.33;;;2.63;;
13343;SDS011;6741;48.964;9.406;2022-11-15T14:54:53;6.77;;;3.20;;
13343;SDS011;6741;48.964;9.406;2022-11-15T14:57:22;3.00;;;2.53;;
13343;SDS011;6741;48.964;9.406;2022-11-15T14:59:49;3.00;;;2.70;;
13343;SDS011;6741;48.964;9.406;2022-11-15T15:02:17;3.13;;;2.83;;
13343;SDS011;6741;48.964;9.406;2022-11-15T15:04:45;2.90;;;2.70;;
13343;SDS011;6741;48.964;9.406;2022-11-15T15:07:13;2.90;;;2.70;;
13343;SDS011;6741;48.964;9.406;2022-11-15T15:09:40;3.13;;;2.83;;
13343;SDS011;6741;48.964;9.406;2022-11-15T15:12:14;4.53;;;2.40;;
13343;SDS011;6741;48.964;9.406;2022-11-15T15:14:45;3.80;;;3.10;;
13343;SDS011;6741;48.964;9.406;2022-11-15T15:17:14;4.23;;;3.30;;
13343;SDS011;6741;48.964;9.406;2022-11-15T15:19:41;5.60;;;3.50;;
13343;SDS011;6741;48.964;9.406;2022-11-15T15:22:10;4.53;;;4.13;;
13343;SDS011;6741;48.964;9.406;2022-11-15T15:24:41;4.97;;;3.80;;
13343;SDS011;6741;48.964;9.406;2022-11-15T15:27:08;4.60;;;4.20;;
13343;SDS011;6741;48.964;9.406;2022-11-15T15:29:36;3.93;;;3.53;;
13343;SDS011;6741;48.964;9.406;2022-11-15T15:32:04;4.37;;;3.80;;
13343;SDS011;6741;48.964;9.406;2022-11-15T15:34:32;4.67;;;3.90;;
13343;SDS011;6741;48.964;9.406;2022-11-15T15:39:49;5.50;;;3.97;;
13343;SDS011;6741;48.964;9.406;2022-11-15T15:42:16;4.77;;;3.70;;
13343;SDS011;6741;48.964;9.406;2022-11-15T15:44:44;11.33;;;7.53;;
13343;SDS011;6741;48.964;9.406;2022-11-15T15:47:12;18.67;;;11.53;;
13343;SDS011;6741;48.964;9.406;2022-11-15T15:49:42;5.57;;;3.90;;
13343;SDS011;6741;48.964;9.406;2022-11-15T15:52:09;4.57;;;3.47;;
13343;SDS011;6741;48.964;9.406;2022-11-15T15:54:36;4.23;;;3.67;;
13343;SDS011;6741;48.964;9.406;2022-11-15T15:57:03;5.27;;;3.87;;
13343;SDS011;6741;48.964;9.406;2022-11-15T15:59:31;6.63;;;4.27;;
13343;SDS011;6741;48.964;9.406;2022-11-15T16:01:58;6.23;;;4.50;;